sensor_id;sensor_type;location;lat;lon;timestamp;P1;durP1;ratioP1;P2;durP2;ratioP2
35442;SDS011;21561;55.654;37.592;2024-03-23T00:53:52;42.45;;;19.50;;
35442;SDS011;21561;55.654;37.592;2024-03-23T00:56:19;44.20;;;20.02;;
35442;SDS011;21561;55.654;37.592;2024-03-23T00:58:45;46.65;;;20.08;;
35442;SDS011;21561;55.654;37.592;2024-03-23T01:01:11;40.75;;;19.73;;
35442;SDS011;21561;55.654;37.592;2024-03-23T01:03:37;44.33;;;19.77;;
35442;SDS011;21561;55.654;37.592;2024-03-23T01:06:03;41.53;;;19.50;;
35442;SDS011;21561;55.654;37.592;2024-03-23T01:08:29;43.10;;;19.58;;
35442;SDS011;21561;55.654;37.592;2024-03-23T01:13:22;48.10;;;21.13;;
35442;SDS011;21561;55.654;37.592;2024-03-23T01:15:48;44.35;;;18.88;;
35442;SDS011;21561;55.654;37.592;2024-03-23T01:18:18;43.28;;;19.42;;
35442;SDS011;21561;55.654;37.592;2024-03-23T01:20:44;42.95;;;19.88;;
35442;SDS011;21561;55.654;37.592;2024-03-23T01:23:10;42.22;;;19.08;;
35442;SDS011;21561;55.654;37.592;2024-03-23T01:25:37;42.95;;;19.58;;
35442;SDS011;21561;55.654;37.592;2024-03-23T01:28:03;43.85;;;18.42;;
35442;SDS011;21561;55.654;37.592;2024-03-23T01:30:29;45.97;;;20.48;;
35442;SDS011;21561;55.654;37.592;2024-03-23T01:32:56;41.80;;;19.75;;
35442;SDS011;21561;55.654;37.592;2024-03-23T01:35:22;44.85;;;19.98;;
35442;SDS011;21561;55.654;37.592;2024-03-23T01:37:48;43.78;;;19.85;;
35442;SDS011;21561;55.654;37.592;2024-03-23T01:40:15;46.80;;;19.83;;
35442;SDS011;21561;55.654;37.592;2024-03-23T01:42:54;43.30;;;20.17;;
35442;SDS011;21561;55.654;37.592;2024-03-23T01:45:21;44.72;;;19.60;;
35442;SDS011;21561;55.654;37.592;2024-03-23T01:47:47;47.60;;;19.35;;
35442;SDS011;21561;55.654;37.592;2024-03-23T01:50:14;47.80;;;19.20;;
35442;SDS011;21561;55.654;37.592;2024-03-23T01:52:41;40.70;;;18.00;;
35442;SDS011;21561;55.654;37.592;2024-03-23T01:55:07;43.28;;;18.08;;
35442;SDS011;21561;55.654;37.592;2024-03-23T01:57:33;43.85;;;18.25;;
35442;SDS011;21561;55.654;37.592;2024-03-23T01:59:59;42.40;;;19.38;;
35442;SDS011;21561;55.654;37.592;2024-03-23T02:02:25;44.78;;;20.55;;
35442;SDS011;21561;55.654;37.592;2024-03-23T02:04:51;45.30;;;19.65;;
35442;SDS011;21561;55.654;37.592;2024-03-23T02:07:17;44.20;;;19.25;;
35442;SDS011;21561;55.654;37.592;2024-03-23T02:09:44;44.30;;;19.55;;
35442;SDS011;21561;55.654;37.592;2024-03-23T02:12:11;46.05;;;19.38;;
35442;SDS011;21561;55.654;37.592;2024-03-23T02:14:37;41.10;;;19.20;;
35442;SDS011;21561;55.654;37.592;2024-03-23T02:17:03;44.20;;;19.05;;
35442;SDS011;21561;55.654;37.592;2024-03-23T02:19:29;42.70;;;19.70;;
35442;SDS011;21561;55.654;37.592;2024-03-23T02:21:55;46.08;;;20.90;;
35442;SDS011;21561;55.654;37.592;2024-03-23T02:24:21;45.05;;;20.27;;
35442;SDS011;21561;55.654;37.592;2024-03-23T02:26:47;49.13;;;22.35;;
35442;SDS011;21561;55.654;37.592;2024-03-23T02:29:14;45.67;;;20.33;;
35442;SDS011;21561;55.654;37.592;2024-03-23T02:31:40;43.85;;;19.77;;
35442;SDS011;21561;55.654;37.592;2024-03-23T02:34:06;43.13;;;19.08;;
35442;SDS011;21561;55.654;37.592;2024-03-23T02:36:32;42.90;;;18.88;;
35442;SDS011;21561;55.654;37.592;2024-03-23T02:38:58;45.25;;;20.50;;
35442;SDS011;21561;55.654;37.592;2024-03-23T02:41:24;43.50;;;20.58;;
35442;SDS011;21561;55.654;37.592;2024-03-23T02:43:50;47.13;;;19.70;;
35442;SDS011;21561;55.654;37.592;2024-03-23T02:46:16;38.65;;;19.23;;
35442;SDS011;21561;55.654;37.592;2024-03-23T02:48:42;46.25;;;19.63;;
35442;SDS011;21561;55.654;37.592;2024-03-23T02:51:08;44.58;;;19.55;;
35442;SDS011;21561;55.654;37.592;2024-03-23T02:53:34;42.63;;;20.63;;
35442;SDS011;21561;55.654;37.592;2024-03-23T02:56:00;44.70;;;19.38;;
35442;SDS011;21561;55.654;37.592;2024-03-23T02:58:26;41.83;;;19.02;;
35442;SDS011;21561;55.654;37.592;2024-03-23T03:00:52;44.40;;;19.88;;
35442;SDS011;21561;55.654;37.592;2024-03-23T03:03:21;41.25;;;19.27;;
35442;SDS011;21561;55.654;37.592;2024-03-23T03:05:47;44.88;;;19.42;;
35442;SDS011;21561;55.654;37.592;2024-03-23T03:08:13;40.67;;;18.52;;
35442;SDS011;21561;55.654;37.592;2024-03-23T03:10:38;40.75;;;18.83;;
35442;SDS011;21561;55.654;37.592;2024-03-23T03:13:04;40.88;;;18.35;;
35442;SDS011;21561;55.654;37.592;2024-03-23T03:15:30;43.22;;;20.02;;
35442;SDS011;21561;55.654;37.592;2024-03-23T03:17:56;39.38;;;18.45;;
35442;SDS011;21561;55.654;37.592;2024-03-23T03:20:22;46.85;;;19.38;;
35442;SDS011;21561;55.654;37.592;2024-03-23T03:22:49;44.28;;;18.90;;
35442;SDS011;21561;55.654;37.592;2024-03-23T03:25:15;43.70;;;19.02;;
35442;SDS011;21561;55.654;37.592;2024-03-23T03:27:41;39.60;;;19.02;;
35442;SDS011;21561;55.654;37.592;2024-03-23T03:30:07;42.65;;;19.05;;
35442;SDS011;21561;55.654;37.592;2024-03-23T03:32:35;43.92;;;18.48;;
35442;SDS011;21561;55.654;37.592;2024-03-23T03:35:01;41.75;;;18.20;;
35442;SDS011;21561;55.654;37.592;2024-03-23T03:37:32;42.00;;;19.25;;
35442;SDS011;21561;55.654;37.592;2024-03-23T03:39:58;40.50;;;19.02;;
35442;SDS011;21561;55.654;37.592;2024-03-23T03:42:24;40.05;;;18.25;;
35442;SDS011;21561;55.654;37.592;2024-03-23T03:44:50;39.55;;;19.20;;
35442;SDS011;21561;55.654;37.592;2024-03-23T03:47:17;41.33;;;19.02;;
35442;SDS011;21561;55.654;37.592;2024-03-23T03:49:43;37.88;;;16.80;;
35442;SDS011;21561;55.654;37.592;2024-03-23T03:52:08;40.08;;;18.45;;
35442;SDS011;21561;55.654;37.592;2024-03-23T03:54:34;44.20;;;19.35;;
35442;SDS011;21561;55.654;37.592;2024-03-23T03:57:00;43.95;;;19.75;;
35442;SDS011;21561;55.654;37.592;2024-03-23T03:59:27;45.45;;;18.92;;
35442;SDS011;21561;55.654;37.592;2024-03-23T04:01:53;38.33;;;18.25;;
35442;SDS011;21561;55.654;37.592;2024-03-23T04:04:19;39.90;;;18.02;;
35442;SDS011;21561;55.654;37.592;2024-03-23T04:06:46;40.15;;;17.90;;
35442;SDS011;21561;55.654;37.592;2024-03-23T04:09:11;40.45;;;17.77;;
35442;SDS011;21561;55.654;37.592;2024-03-23T04:11:39;42.03;;;18.35;;
35442;SDS011;21561;55.654;37.592;2024-03-23T04:14:04;39.90;;;18.05;;
35442;SDS011;21561;55.654;37.592;2024-03-23T04:16:33;37.17;;;18.65;;
35442;SDS011;21561;55.654;37.592;2024-03-23T04:19:00;39.03;;;17.67;;
35442;SDS011;21561;55.654;37.592;2024-03-23T04:21:26;39.28;;;18.02;;
35442;SDS011;21561;55.654;37.592;2024-03-23T04:23:52;41.38;;;18.15;;
35442;SDS011;21561;55.654;37.592;2024-03-23T04:26:18;37.00;;;17.85;;
35442;SDS011;21561;55.654;37.592;2024-03-23T04:28:44;38.38;;;17.55;;
35442;SDS011;21561;55.654;37.592;2024-03-23T04:31:10;37.47;;;16.38;;
35442;SDS011;21561;55.654;37.592;2024-03-23T04:33:36;36.55;;;17.75;;
35442;SDS011;21561;55.654;37.592;2024-03-23T04:36:02;35.85;;;16.35;;
35442;SDS011;21561;55.654;37.592;2024-03-23T04:38:28;36.95;;;16.95;;
35442;SDS011;21561;55.654;37.592;2024-03-23T04:40:55;39.92;;;18.77;;
35442;SDS011;21561;55.654;37.592;2024-03-23T04:43:22;37.65;;;18.10;;
35442;SDS011;21561;55.654;37.592;2024-03-23T04:45:48;38.25;;;16.52;;
35442;SDS011;21561;55.654;37.592;2024-03-23T04:48:14;36.40;;;17.35;;
35442;SDS011;21561;55.654;37.592;2024-03-23T04:50:40;36.50;;;16.85;;
35442;SDS011;21561;55.654;37.592;2024-03-23T04:53:06;36.40;;;17.10;;
35442;SDS011;21561;55.654;37.592;2024-03-23T04:55:33;36.47;;;16.98;;
35442;SDS011;21561;55.654;37.592;2024-03-23T04:57:59;38.67;;;17.88;;
35442;SDS011;21561;55.654;37.592;2024-03-23T05:00:25;33.92;;;16.38;;
35442;SDS011;21561;55.654;37.592;2024-03-23T05:02:51;34.58;;;15.50;;
35442;SDS011;21561;55.654;37.592;2024-03-23T05:05:19;41.50;;;17.80;;
35442;SDS011;21561;55.654;37.592;2024-03-23T05:07:44;35.28;;;16.48;;
35442;SDS011;21561;55.654;37.592;2024-03-23T05:10:10;36.83;;;16.90;;
35442;SDS011;21561;55.654;37.592;2024-03-23T05:12:37;34.08;;;16.38;;
35442;SDS011;21561;55.654;37.592;2024-03-23T05:15:06;38.88;;;17.27;;
35442;SDS011;21561;55.654;37.592;2024-03-23T05:17:35;37.78;;;17.77;;
35442;SDS011;21561;55.654;37.592;2024-03-23T05:20:03;39.17;;;16.95;;
35442;SDS011;21561;55.654;37.592;2024-03-23T05:22:29;36.90;;;17.63;;
35442;SDS011;21561;55.654;37.592;2024-03-23T05:24:56;38.13;;;17.55;;
35442;SDS011;21561;55.654;37.592;2024-03-23T05:27:22;36.53;;;17.63;;
35442;SDS011;21561;55.654;37.592;2024-03-23T05:29:48;37.33;;;18.02;;
35442;SDS011;21561;55.654;37.592;2024-03-23T05:32:14;38.60;;;17.40;;
35442;SDS011;21561;55.654;37.592;2024-03-23T05:34:40;38.58;;;18.95;;
35442;SDS011;21561;55.654;37.592;2024-03-23T05:37:06;38.65;;;17.95;;
35442;SDS011;21561;55.654;37.592;2024-03-23T05:39:32;42.83;;;18.02;;
35442;SDS011;21561;55.654;37.592;2024-03-23T05:41:58;37.75;;;17.85;;
35442;SDS011;21561;55.654;37.592;2024-03-23T05:44:24;41.10;;;18.85;;
35442;SDS011;21561;55.654;37.592;2024-03-23T05:46:50;41.20;;;19.58;;
35442;SDS011;21561;55.654;37.592;2024-03-23T05:49:16;42.47;;;19.98;;
35442;SDS011;21561;55.654;37.592;2024-03-23T05:51:43;43.08;;;19.08;;
35442;SDS011;21561;55.654;37.592;2024-03-23T05:54:09;37.67;;;18.35;;
35442;SDS011;21561;55.654;37.592;2024-03-23T05:56:36;42.55;;;19.48;;
35442;SDS011;21561;55.654;37.592;2024-03-23T05:59:02;40.47;;;18.88;;
35442;SDS011;21561;55.654;37.592;2024-03-23T06:01:29;42.05;;;19.35;;
35442;SDS011;21561;55.654;37.592;2024-03-23T06:03:58;41.63;;;19.52;;
35442;SDS011;21561;55.654;37.592;2024-03-23T06:06:27;36.97;;;17.48;;
35442;SDS011;21561;55.654;37.592;2024-03-23T06:08:56;42.38;;;19.60;;
35442;SDS011;21561;55.654;37.592;2024-03-23T06:11:22;42.75;;;19.83;;
35442;SDS011;21561;55.654;37.592;2024-03-23T06:13:48;43.35;;;19.55;;
35442;SDS011;21561;55.654;37.592;2024-03-23T06:16:13;42.92;;;20.58;;
35442;SDS011;21561;55.654;37.592;2024-03-23T06:18:39;46.80;;;19.40;;
35442;SDS011;21561;55.654;37.592;2024-03-23T06:21:05;46.58;;;20.80;;
35442;SDS011;21561;55.654;37.592;2024-03-23T06:23:39;40.97;;;19.27;;
35442;SDS011;21561;55.654;37.592;2024-03-23T06:26:05;45.45;;;19.67;;
35442;SDS011;21561;55.654;37.592;2024-03-23T06:28:31;51.20;;;22.33;;
35442;SDS011;21561;55.654;37.592;2024-03-23T06:30:57;43.20;;;20.58;;
35442;SDS011;21561;55.654;37.592;2024-03-23T06:33:23;42.42;;;19.27;;
35442;SDS011;21561;55.654;37.592;2024-03-23T06:35:52;41.08;;;19.60;;
35442;SDS011;21561;55.654;37.592;2024-03-23T06:38:18;43.15;;;19.75;;
35442;SDS011;21561;55.654;37.592;2024-03-23T06:40:44;42.22;;;19.45;;
35442;SDS011;21561;55.654;37.592;2024-03-23T06:43:16;43.70;;;19.52;;
35442;SDS011;21561;55.654;37.592;2024-03-23T06:45:42;38.13;;;19.02;;
35442;SDS011;21561;55.654;37.592;2024-03-23T06:48:07;43.67;;;19.77;;
35442;SDS011;21561;55.654;37.592;2024-03-23T06:50:33;40.30;;;18.98;;
35442;SDS011;21561;55.654;37.592;2024-03-23T06:53:00;40.20;;;18.95;;
35442;SDS011;21561;55.654;37.592;2024-03-23T06:55:27;34.08;;;16.83;;
35442;SDS011;21561;55.654;37.592;2024-03-23T06:57:53;37.42;;;17.80;;
35442;SDS011;21561;55.654;37.592;2024-03-23T07:00:19;38.90;;;17.02;;
35442;SDS011;21561;55.654;37.592;2024-03-23T07:02:45;38.33;;;18.45;;
35442;SDS011;21561;55.654;37.592;2024-03-23T07:05:11;38.67;;;17.55;;
35442;SDS011;21561;55.654;37.592;2024-03-23T07:07:40;35.30;;;17.08;;
35442;SDS011;21561;55.654;37.592;2024-03-23T07:10:06;40.50;;;18.58;;
35442;SDS011;21561;55.654;37.592;2024-03-23T07:12:32;34.70;;;16.67;;
35442;SDS011;21561;55.654;37.592;2024-03-23T07:14:58;36.92;;;17.65;;
35442;SDS011;21561;55.654;37.592;2024-03-23T07:17:24;35.88;;;18.13;;
35442;SDS011;21561;55.654;37.592;2024-03-23T07:19:50;35.33;;;17.25;;
35442;SDS011;21561;55.654;37.592;2024-03-23T07:22:16;34.60;;;16.95;;
35442;SDS011;21561;55.654;37.592;2024-03-23T07:24:42;35.17;;;17.40;;
35442;SDS011;21561;55.654;37.592;2024-03-23T07:27:09;37.35;;;17.70;;
35442;SDS011;21561;55.654;37.592;2024-03-23T07:29:36;38.05;;;17.75;;
35442;SDS011;21561;55.654;37.592;2024-03-23T07:32:02;39.70;;;17.90;;
35442;SDS011;21561;55.654;37.592;2024-03-23T07:34:28;37.30;;;18.20;;
35442;SDS011;21561;55.654;37.592;2024-03-23T07:36:54;37.95;;;17.52;;
35442;SDS011;21561;55.654;37.592;2024-03-23T07:39:20;34.10;;;16.33;;
35442;SDS011;21561;55.654;37.592;2024-03-23T07:41:46;35.28;;;17.15;;
35442;SDS011;21561;55.654;37.592;2024-03-23T07:44:12;39.15;;;18.70;;
35442;SDS011;21561;55.654;37.592;2024-03-23T07:46:38;37.33;;;17.13;;
35442;SDS011;21561;55.654;37.592;2024-03-23T07:49:04;38.58;;;17.17;;
35442;SDS011;21561;55.654;37.592;2024-03-23T07:51:30;34.20;;;16.45;;
35442;SDS011;21561;55.654;37.592;2024-03-23T07:53:56;35.28;;;16.63;;
35442;SDS011;21561;55.654;37.592;2024-03-23T07:56:22;38.60;;;17.65;;
35442;SDS011;21561;55.654;37.592;2024-03-23T07:58:49;40.10;;;18.63;;
35442;SDS011;21561;55.654;37.592;2024-03-23T08:01:15;33.53;;;15.88;;
35442;SDS011;21561;55.654;37.592;2024-03-23T08:03:45;40.50;;;20.33;;
35442;SDS011;21561;55.654;37.592;2024-03-23T08:06:18;35.50;;;16.35;;
35442;SDS011;21561;55.654;37.592;2024-03-23T08:08:50;37.85;;;17.63;;
35442;SDS011;21561;55.654;37.592;2024-03-23T08:11:29;35.70;;;17.80;;
35442;SDS011;21561;55.654;37.592;2024-03-23T08:13:56;35.93;;;17.00;;
35442;SDS011;21561;55.654;37.592;2024-03-23T08:16:23;36.72;;;16.65;;
35442;SDS011;21561;55.654;37.592;2024-03-23T08:18:52;37.38;;;17.63;;
35442;SDS011;21561;55.654;37.592;2024-03-23T08:21:18;40.38;;;18.13;;
35442;SDS011;21561;55.654;37.592;2024-03-23T08:23:45;36.17;;;18.63;;
35442;SDS011;21561;55.654;37.592;2024-03-23T08:26:11;37.33;;;18.77;;
35442;SDS011;21561;55.654;37.592;2024-03-23T08:28:39;40.67;;;17.00;;
35442;SDS011;21561;55.654;37.592;2024-03-23T08:31:07;36.10;;;16.38;;
35442;SDS011;21561;55.654;37.592;2024-03-23T08:33:34;38.85;;;17.17;;
35442;SDS011;21561;55.654;37.592;2024-03-23T08:36:02;37.75;;;16.63;;
35442;SDS011;21561;55.654;37.592;2024-03-23T08:38:29;36.63;;;17.85;;
35442;SDS011;21561;55.654;37.592;2024-03-23T08:40:59;35.58;;;17.65;;
35442;SDS011;21561;55.654;37.592;2024-03-23T08:43:29;33.30;;;16.83;;
35442;SDS011;21561;55.654;37.592;2024-03-23T08:48:36;36.75;;;17.48;;
35442;SDS011;21561;55.654;37.592;2024-03-23T08:51:04;34.53;;;15.77;;
35442;SDS011;21561;55.654;37.592;2024-03-23T08:53:34;30.70;;;15.75;;
35442;SDS011;21561;55.654;37.592;2024-03-23T08:56:04;32.80;;;15.85;;
35442;SDS011;21561;55.654;37.592;2024-03-23T08:58:34;31.73;;;16.38;;
35442;SDS011;21561;55.654;37.592;2024-03-23T09:01:06;32.70;;;16.33;;
35442;SDS011;21561;55.654;37.592;2024-03-23T09:03:33;33.40;;;16.02;;
35442;SDS011;21561;55.654;37.592;2024-03-23T09:06:02;32.35;;;14.40;;
35442;SDS011;21561;55.654;37.592;2024-03-23T09:08:32;30.17;;;14.63;;
35442;SDS011;21561;55.654;37.592;2024-03-23T09:11:03;36.53;;;15.75;;
35442;SDS011;21561;55.654;37.592;2024-03-23T09:13:32;28.88;;;14.20;;
35442;SDS011;21561;55.654;37.592;2024-03-23T09:16:03;30.25;;;14.27;;
35442;SDS011;21561;55.654;37.592;2024-03-23T09:18:31;28.13;;;14.52;;
35442;SDS011;21561;55.654;37.592;2024-03-23T09:20:59;31.20;;;15.25;;
35442;SDS011;21561;55.654;37.592;2024-03-23T09:23:25;32.33;;;14.55;;
35442;SDS011;21561;55.654;37.592;2024-03-23T09:25:51;28.95;;;14.07;;
35442;SDS011;21561;55.654;37.592;2024-03-23T09:28:17;31.13;;;14.63;;
35442;SDS011;21561;55.654;37.592;2024-03-23T09:30:43;30.85;;;14.82;;
35442;SDS011;21561;55.654;37.592;2024-03-23T09:33:10;28.33;;;13.70;;
35442;SDS011;21561;55.654;37.592;2024-03-23T09:35:37;33.10;;;14.25;;
35442;SDS011;21561;55.654;37.592;2024-03-23T09:38:06;30.13;;;14.25;;
35442;SDS011;21561;55.654;37.592;2024-03-23T09:40:42;28.75;;;13.48;;
35442;SDS011;21561;55.654;37.592;2024-03-23T09:43:09;28.70;;;13.55;;
35442;SDS011;21561;55.654;37.592;2024-03-23T09:45:39;26.95;;;13.63;;
35442;SDS011;21561;55.654;37.592;2024-03-23T09:48:07;32.92;;;12.68;;
35442;SDS011;21561;55.654;37.592;2024-03-23T09:50:36;26.85;;;13.77;;
35442;SDS011;21561;55.654;37.592;2024-03-23T09:53:09;31.38;;;13.90;;
35442;SDS011;21561;55.654;37.592;2024-03-23T09:55:37;27.17;;;13.82;;
35442;SDS011;21561;55.654;37.592;2024-03-23T09:58:04;26.40;;;13.93;;
35442;SDS011;21561;55.654;37.592;2024-03-23T10:00:31;27.42;;;13.48;;
35442;SDS011;21561;55.654;37.592;2024-03-23T10:03:01;28.13;;;13.07;;
35442;SDS011;21561;55.654;37.592;2024-03-23T10:05:28;27.35;;;13.75;;
35442;SDS011;21561;55.654;37.592;2024-03-23T10:07:57;25.45;;;13.32;;
35442;SDS011;21561;55.654;37.592;2024-03-23T10:10:24;27.77;;;13.10;;
35442;SDS011;21561;55.654;37.592;2024-03-23T10:12:51;24.88;;;12.82;;
35442;SDS011;21561;55.654;37.592;2024-03-23T10:15:18;26.33;;;12.95;;
35442;SDS011;21561;55.654;37.592;2024-03-23T10:17:49;28.92;;;14.05;;
35442;SDS011;21561;55.654;37.592;2024-03-23T10:20:22;26.60;;;13.25;;
35442;SDS011;21561;55.654;37.592;2024-03-23T10:22:49;27.25;;;13.07;;
35442;SDS011;21561;55.654;37.592;2024-03-23T10:25:18;26.70;;;12.57;;
35442;SDS011;21561;55.654;37.592;2024-03-23T10:27:58;31.10;;;13.82;;
35442;SDS011;21561;55.654;37.592;2024-03-23T10:30:26;25.65;;;12.52;;
35442;SDS011;21561;55.654;37.592;2024-03-23T10:33:10;26.88;;;12.00;;
35442;SDS011;21561;55.654;37.592;2024-03-23T10:35:37;27.73;;;13.68;;
35442;SDS011;21561;55.654;37.592;2024-03-23T10:38:04;27.40;;;12.98;;
35442;SDS011;21561;55.654;37.592;2024-03-23T10:40:35;25.60;;;12.40;;
35442;SDS011;21561;55.654;37.592;2024-03-23T10:43:05;26.67;;;13.43;;
35442;SDS011;21561;55.654;37.592;2024-03-23T10:45:33;27.05;;;12.95;;
35442;SDS011;21561;55.654;37.592;2024-03-23T10:47:59;26.52;;;12.32;;
35442;SDS011;21561;55.654;37.592;2024-03-23T10:50:26;25.95;;;12.43;;
35442;SDS011;21561;55.654;37.592;2024-03-23T10:52:53;26.33;;;13.35;;
35442;SDS011;21561;55.654;37.592;2024-03-23T10:55:19;28.27;;;13.50;;
35442;SDS011;21561;55.654;37.592;2024-03-23T10:57:50;27.17;;;13.15;;
35442;SDS011;21561;55.654;37.592;2024-03-23T11:00:19;28.75;;;13.48;;
35442;SDS011;21561;55.654;37.592;2024-03-23T11:02:48;28.60;;;13.35;;
35442;SDS011;21561;55.654;37.592;2024-03-23T11:07:53;25.58;;;13.10;;
35442;SDS011;21561;55.654;37.592;2024-03-23T11:10:29;26.88;;;13.23;;
35442;SDS011;21561;55.654;37.592;2024-03-23T11:12:56;26.00;;;13.05;;
35442;SDS011;21561;55.654;37.592;2024-03-23T11:15:23;27.70;;;14.25;;
35442;SDS011;21561;55.654;37.592;2024-03-23T11:18:02;27.58;;;13.70;;
35442;SDS011;21561;55.654;37.592;2024-03-23T11:20:35;29.17;;;14.40;;
35442;SDS011;21561;55.654;37.592;2024-03-23T11:23:02;27.65;;;13.15;;
35442;SDS011;21561;55.654;37.592;2024-03-23T11:25:28;27.02;;;12.90;;
35442;SDS011;21561;55.654;37.592;2024-03-23T11:27:56;25.80;;;12.60;;
35442;SDS011;21561;55.654;37.592;2024-03-23T11:30:24;29.00;;;14.48;;
35442;SDS011;21561;55.654;37.592;2024-03-23T11:32:55;29.10;;;14.63;;
35442;SDS011;21561;55.654;37.592;2024-03-23T11:35:32;29.50;;;13.48;;
35442;SDS011;21561;55.654;37.592;2024-03-23T11:38:09;29.98;;;14.80;;
35442;SDS011;21561;55.654;37.592;2024-03-23T11:40:42;28.35;;;13.85;;
35442;SDS011;21561;55.654;37.592;2024-03-23T11:43:10;28.20;;;14.40;;
35442;SDS011;21561;55.654;37.592;2024-03-23T11:45:43;30.77;;;13.57;;
35442;SDS011;21561;55.654;37.592;2024-03-23T11:48:14;29.60;;;14.30;;
35442;SDS011;21561;55.654;37.592;2024-03-23T11:50:43;26.77;;;13.80;;
35442;SDS011;21561;55.654;37.592;2024-03-23T11:55:47;31.15;;;15.70;;
35442;SDS011;21561;55.654;37.592;2024-03-23T11:58:14;29.73;;;15.10;;
35442;SDS011;21561;55.654;37.592;2024-03-23T12:00:41;29.75;;;14.85;;
35442;SDS011;21561;55.654;37.592;2024-03-23T12:03:07;30.08;;;15.55;;
35442;SDS011;21561;55.654;37.592;2024-03-23T12:05:34;30.50;;;15.90;;
35442;SDS011;21561;55.654;37.592;2024-03-23T12:08:16;32.33;;;15.25;;
35442;SDS011;21561;55.654;37.592;2024-03-23T12:10:47;36.05;;;15.57;;
35442;SDS011;21561;55.654;37.592;2024-03-23T12:13:16;33.70;;;16.55;;
35442;SDS011;21561;55.654;37.592;2024-03-23T12:15:43;30.58;;;15.75;;
35442;SDS011;21561;55.654;37.592;2024-03-23T12:18:10;29.98;;;15.38;;
35442;SDS011;21561;55.654;37.592;2024-03-23T12:20:37;31.17;;;15.18;;
35442;SDS011;21561;55.654;37.592;2024-03-23T12:23:05;31.00;;;15.57;;
35442;SDS011;21561;55.654;37.592;2024-03-23T12:25:35;35.92;;;16.20;;
35442;SDS011;21561;55.654;37.592;2024-03-23T12:28:02;33.25;;;16.80;;
35442;SDS011;21561;55.654;37.592;2024-03-23T12:30:28;32.10;;;15.95;;
35442;SDS011;21561;55.654;37.592;2024-03-23T12:32:54;34.35;;;17.10;;
35442;SDS011;21561;55.654;37.592;2024-03-23T12:35:20;35.15;;;17.17;;
35442;SDS011;21561;55.654;37.592;2024-03-23T12:37:46;36.42;;;18.30;;
35442;SDS011;21561;55.654;37.592;2024-03-23T12:40:12;33.10;;;16.50;;
35442;SDS011;21561;55.654;37.592;2024-03-23T12:42:38;34.60;;;16.75;;
35442;SDS011;21561;55.654;37.592;2024-03-23T12:45:04;33.83;;;17.48;;
35442;SDS011;21561;55.654;37.592;2024-03-23T12:47:30;33.97;;;17.15;;
35442;SDS011;21561;55.654;37.592;2024-03-23T12:49:56;39.40;;;18.17;;
35442;SDS011;21561;55.654;37.592;2024-03-23T12:52:22;38.83;;;18.20;;
35442;SDS011;21561;55.654;37.592;2024-03-23T12:54:56;35.07;;;16.60;;
35442;SDS011;21561;55.654;37.592;2024-03-23T12:57:25;37.33;;;17.45;;
35442;SDS011;21561;55.654;37.592;2024-03-23T12:59:52;36.88;;;16.80;;
35442;SDS011;21561;55.654;37.592;2024-03-23T13:02:22;36.42;;;18.15;;
35442;SDS011;21561;55.654;37.592;2024-03-23T13:04:50;33.15;;;16.20;;
35442;SDS011;21561;55.654;37.592;2024-03-23T13:07:17;32.25;;;15.75;;
35442;SDS011;21561;55.654;37.592;2024-03-23T13:09:43;34.22;;;17.02;;
35442;SDS011;21561;55.654;37.592;2024-03-23T13:12:10;32.38;;;16.50;;
35442;SDS011;21561;55.654;37.592;2024-03-23T13:14:39;33.17;;;16.05;;
35442;SDS011;21561;55.654;37.592;2024-03-23T13:17:05;34.08;;;16.15;;
35442;SDS011;21561;55.654;37.592;2024-03-23T13:19:32;31.33;;;15.98;;
35442;SDS011;21561;55.654;37.592;2024-03-23T13:21:59;36.53;;;17.02;;
35442;SDS011;21561;55.654;37.592;2024-03-23T13:24:26;33.22;;;15.27;;
35442;SDS011;21561;55.654;37.592;2024-03-23T13:26:53;33.42;;;15.48;;
35442;SDS011;21561;55.654;37.592;2024-03-23T13:29:21;33.88;;;15.32;;
35442;SDS011;21561;55.654;37.592;2024-03-23T13:31:51;31.73;;;15.43;;
35442;SDS011;21561;55.654;37.592;2024-03-23T13:34:17;32.10;;;16.35;;
35442;SDS011;21561;55.654;37.592;2024-03-23T13:36:46;29.92;;;14.63;;
35442;SDS011;21561;55.654;37.592;2024-03-23T13:39:13;33.10;;;15.45;;
35442;SDS011;21561;55.654;37.592;2024-03-23T13:41:41;30.35;;;14.43;;
35442;SDS011;21561;55.654;37.592;2024-03-23T13:44:08;29.10;;;14.68;;
35442;SDS011;21561;55.654;37.592;2024-03-23T13:46:41;32.20;;;14.23;;
35442;SDS011;21561;55.654;37.592;2024-03-23T13:49:45;29.42;;;12.90;;
35442;SDS011;21561;55.654;37.592;2024-03-23T13:52:06;27.67;;;14.15;;
35442;SDS011;21561;55.654;37.592;2024-03-23T13:54:33;29.95;;;13.35;;
35442;SDS011;21561;55.654;37.592;2024-03-23T13:56:59;31.10;;;12.98;;
35442;SDS011;21561;55.654;37.592;2024-03-23T13:59:24;28.38;;;14.15;;
35442;SDS011;21561;55.654;37.592;2024-03-23T14:01:51;26.75;;;12.85;;
35442;SDS011;21561;55.654;37.592;2024-03-23T14:04:18;28.30;;;12.38;;
35442;SDS011;21561;55.654;37.592;2024-03-23T14:06:48;28.67;;;13.43;;
35442;SDS011;21561;55.654;37.592;2024-03-23T14:09:14;25.02;;;13.07;;
35442;SDS011;21561;55.654;37.592;2024-03-23T14:11:47;27.55;;;12.98;;
35442;SDS011;21561;55.654;37.592;2024-03-23T14:14:13;27.75;;;13.02;;
35442;SDS011;21561;55.654;37.592;2024-03-23T14:16:42;27.02;;;12.55;;
35442;SDS011;21561;55.654;37.592;2024-03-23T14:19:08;29.40;;;12.55;;
35442;SDS011;21561;55.654;37.592;2024-03-23T14:21:35;27.15;;;12.95;;
35442;SDS011;21561;55.654;37.592;2024-03-23T14:24:01;25.67;;;12.18;;
35442;SDS011;21561;55.654;37.592;2024-03-23T14:26:28;28.50;;;14.05;;
35442;SDS011;21561;55.654;37.592;2024-03-23T14:28:54;26.30;;;12.75;;
35442;SDS011;21561;55.654;37.592;2024-03-23T14:31:20;26.35;;;13.27;;
35442;SDS011;21561;55.654;37.592;2024-03-23T14:33:47;25.35;;;12.73;;
35442;SDS011;21561;55.654;37.592;2024-03-23T14:36:14;28.55;;;14.23;;
35442;SDS011;21561;55.654;37.592;2024-03-23T14:38:41;26.90;;;13.40;;
35442;SDS011;21561;55.654;37.592;2024-03-23T14:41:07;28.40;;;12.70;;
35442;SDS011;21561;55.654;37.592;2024-03-23T14:43:34;29.58;;;13.20;;
35442;SDS011;21561;55.654;37.592;2024-03-23T14:48:33;28.23;;;14.27;;
35442;SDS011;21561;55.654;37.592;2024-03-23T14:51:00;34.65;;;14.50;;
35442;SDS011;21561;55.654;37.592;2024-03-23T14:53:30;30.30;;;14.00;;
35442;SDS011;21561;55.654;37.592;2024-03-23T14:55:59;30.60;;;14.98;;
35442;SDS011;21561;55.654;37.592;2024-03-23T14:58:27;26.33;;;13.40;;
35442;SDS011;21561;55.654;37.592;2024-03-23T15:00:59;28.80;;;13.85;;
35442;SDS011;21561;55.654;37.592;2024-03-23T15:03:26;27.35;;;13.80;;
35442;SDS011;21561;55.654;37.592;2024-03-23T15:05:55;27.83;;;13.63;;
35442;SDS011;21561;55.654;37.592;2024-03-23T15:08:22;27.88;;;14.05;;
35442;SDS011;21561;55.654;37.592;2024-03-23T15:10:48;27.73;;;13.88;;
35442;SDS011;21561;55.654;37.592;2024-03-23T15:13:15;28.42;;;12.88;;
35442;SDS011;21561;55.654;37.592;2024-03-23T15:15:42;28.88;;;13.70;;